This is the latest recevied weather packets stored in our database for station/object VK4TOM-13. If no packets are shown the sender has not sent any weather packets the latest 10 day(s).
| Time | Temp. | Humidity | Pressure | Rain* | Wind** | Luminosity | Snow |
|---|---|---|---|---|---|---|---|
| 1777612950 | 28.89° C | 70% | 1017.7 hPa | 0 mm | - | - | - |
| 1777612769 | 29.44° C | 70% | 1017.8 hPa | 0 mm | - | - | - |
| 1777611695 | 29.44° C | 70% | 1017.8 hPa | 0 mm | - | - | - |
| 1777611094 | 30° C | 70% | 1017.9 hPa | 0 mm | - | - | - |
| 1777610492 | 30.56° C | 70% | 1017.9 hPa | 0 mm | - | - | - |
| 1777609892 | 30.56° C | 70% | 1018.1 hPa | 0 mm | - | - | - |
| 1777609290 | 30.56° C | 70% | 1018.2 hPa | 0 mm | - | - | - |
| 1777608691 | 30.56° C | 70% | 1018.2 hPa | 0 mm | - | - | - |
| 1777608088 | 30.56° C | 70% | 1018.2 hPa | 0 mm | - | - | - |
| 1777607488 | 31.11° C | 63% | 1018.3 hPa | 0 mm | - | - | - |
| 1777607234 | 31.11° C | 59% | 1018.4 hPa | 0 mm | - | - | - |
| 1777606838 | 31.11° C | 56% | 1018.3 hPa | 0 mm | - | - | - |
| 1777606237 | 30.56° C | 57% | 1018.5 hPa | 0 mm | - | - | - |
| 1777605636 | 31.11° C | 54% | 1018.6 hPa | 0 mm | - | - | - |
| 1777605035 | 31.11° C | 52% | 1018.8 hPa | 0 mm | - | - | - |
| 1777603231 | 31.11° C | 63% | 1019.4 hPa | 0 mm | - | - | - |
| 1777597677 | 28.33° C | 70% | 1020.9 hPa | 0 mm | - | - | - |
| 1777591735 | 25° C | 70% | 1022 hPa | 0 mm | - | - | - |
| 1777591554 | 25° C | 70% | 1022 hPa | 0 mm | - | - | - |
| 1777591132 | 24.44° C | 70% | 1022 hPa | 0 mm | - | - | - |
| 1777590530 | 24.44° C | 70% | 1022 hPa | 0 mm | - | - | - |
| 1777589930 | 23.89° C | 70% | 1022.3 hPa | 0 mm | - | - | - |
| 1777589328 | 23.33° C | 70% | 1022.2 hPa | 0 mm | - | - | - |
| 1777588727 | 23.33° C | 70% | 1022.4 hPa | 0 mm | - | - | - |
| 1777588126 | 22.78° C | 70% | 1022.3 hPa | 0 mm | - | - | - |
* Rain since midnight (hover to see other rain measurements)
** Current wind speed in m/s (hover to see current wind gust speed)